| time (UTC) | temp F | wind direction | speed MPH | gust MPH | rain 1hr in | rain 24hr in | rain mn in | humidity % | barometer mb |
| 20260506011515 | 65 | 269 | 4.0 | 7.0 | 0.00 | 0.07 | 0.07 | 73 | 1018.1 |
| 20260506010526 | 65 | 291 | 5.0 | 6.0 | 0.00 | 0.07 | 0.07 | 73 | 1018.2 |
| 20260506005530 | 65 | 269 | 4.0 | 6.0 | 0.00 | 0.07 | 0.07 | 72 | 1018.2 |
| 20260506004516 | 65 | 245 | 4.0 | 6.0 | 0.00 | 0.07 | 0.07 | 72 | 1018.2 |
| 20260506003525 | 66 | 259 | 5.0 | 7.0 | 0.00 | 0.07 | 0.07 | 72 | 1018.1 |
| 20260506002525 | 66 | 260 | 5.0 | 7.0 | 0.00 | 0.07 | 0.07 | 73 | 1018.1 |
| 20260506001554 | 65 | 291 | 4.0 | 8.0 | 0.00 | 0.07 | 0.07 | 73 | 1018.0 |
| 20260506000516 | 65 | 275 | 6.0 | 8.0 | 0.00 | 0.07 | 0.07 | 74 | 1018.0 |
| 20260505235520 | 65 | 274 | 5.0 | 7.0 | 0.00 | 0.07 | 0.07 | 74 | 1018.0 |
| 20260505234544 | 65 | 277 | 6.0 | 9.0 | 0.00 | 0.07 | 0.07 | 74 | 1018.0 |
| 20260505233529 | 65 | 273 | 5.0 | 7.0 | 0.00 | 0.07 | 0.07 | 75 | 1017.9 |
| 20260505232515 | 65 | 280 | 7.0 | 9.0 | 0.00 | 0.07 | 0.07 | 75 | 1018.0 |
| 20260505231519 | 64 | 264 | 6.0 | 8.0 | 0.00 | 0.07 | 0.07 | 76 | 1018.0 |
| 20260505230523 | 64 | 258 | 6.0 | 8.0 | 0.00 | 0.07 | 0.07 | 76 | 1017.9 |
| 20260505225528 | 65 | 279 | 5.0 | 7.0 | 0.00 | 0.07 | 0.07 | 76 | 1018.0 |
| 20260505224532 | 65 | 276 | 6.0 | 8.0 | 0.00 | 0.07 | 0.07 | 76 | 1018.0 |
| 20260505223518 | 65 | 261 | 5.0 | 9.0 | 0.00 | 0.07 | 0.07 | 77 | 1018.1 |
| 20260505222523 | 65 | 245 | 5.0 | 7.0 | 0.00 | 0.07 | 0.07 | 76 | 1018.3 |
| 20260505221527 | 63 | 306 | 4.0 | 7.0 | 0.00 | 0.07 | 0.07 | 79 | 1018.5 |
| 20260505220531 | 63 | 267 | 4.0 | 5.0 | 0.00 | 0.07 | 0.07 | 79 | 1018.5 |
| 20260505215518 | 63 | 273 | 3.0 | 6.0 | 0.00 | 0.07 | 0.07 | 79 | 1018.5 |
| 20260505214522 | 63 | 272 | 5.0 | 7.0 | 0.00 | 0.07 | 0.07 | 80 | 1018.5 |
| 20260505213527 | 62 | 272 | 4.0 | 5.0 | 0.00 | 0.07 | 0.07 | 80 | 1018.6 |
| 20260505212611 | 62 | 268 | 4.0 | 6.0 | 0.00 | 0.07 | 0.07 | 80 | 1018.6 |
| 20260505211517 | 62 | 274 | 4.0 | 6.0 | 0.00 | 0.07 | 0.07 | 81 | 1018.5 |
| 20260505210521 | 61 | 246 | 5.0 | 8.0 | 0.00 | 0.07 | 0.07 | 81 | 1018.6 |
| 20260505205525 | 62 | 263 | 6.0 | 8.0 | 0.00 | 0.07 | 0.07 | 81 | 1018.7 |
| 20260505204551 | 61 | 279 | 4.0 | 6.0 | 0.00 | 0.07 | 0.07 | 82 | 1018.7 |
| 20260505203516 | 62 | 264 | 5.0 | 7.0 | 0.00 | 0.07 | 0.07 | 81 | 1018.6 |
| 20260505202540 | 62 | 282 | 5.0 | 8.0 | 0.00 | 0.07 | 0.07 | 81 | 1018.7 |
| 20260505201525 | 61 | 255 | 4.0 | 5.0 | 0.00 | 0.07 | 0.07 | 82 | 1018.7 |
| 20260505200523 | 62 | 271 | 5.0 | 7.0 | 0.00 | 0.07 | 0.07 | 81 | 1018.8 |
| 20260505195515 | 62 | 328 | 4.0 | 8.0 | 0.00 | 0.07 | 0.07 | 82 | 1019.0 |
| 20260505194520 | 60 | 295 | 4.0 | 5.0 | 0.00 | 0.07 | 0.07 | 83 | 1019.0 |
| 20260505193518 | 61 | 284 | 4.0 | 6.0 | 0.00 | 0.07 | 0.07 | 83 | 1018.9 |
| 20260505192516 | 61 | 269 | 4.0 | 7.0 | 0.00 | 0.07 | 0.07 | 83 | 1018.8 |
| 20260505191515 | 60 | 277 | 4.0 | 5.0 | 0.00 | 0.07 | 0.07 | 85 | 1018.9 |
| 20260505190518 | 59 | 283 | 5.0 | 7.0 | 0.00 | 0.07 | 0.07 | 87 | 1018.9 |
| 20260505185545 | 59 | 274 | 4.0 | 6.0 | 0.00 | 0.07 | 0.07 | 88 | 1018.7 |
| 20260505184524 | 59 | 286 | 4.0 | 6.0 | 0.00 | 0.07 | 0.07 | 88 | 1018.8 |
| 20260505183536 | 59 | 279 | 5.0 | 7.0 | 0.00 | 0.07 | 0.07 | 87 | 1018.8 |
| 20260505182540 | 59 | 280 | 5.0 | 8.0 | 0.00 | 0.07 | 0.07 | 86 | 1018.7 |
| 20260505181539 | 59 | 267 | 6.0 | 8.0 | 0.00 | 0.07 | 0.07 | 85 | 1018.6 |
| 20260505180518 | 59 | 262 | 6.0 | 8.0 | 0.00 | 0.07 | 0.07 | 85 | 1018.5 |
| 20260505175515 | 59 | 257 | 4.0 | 7.0 | 0.00 | 0.07 | 0.07 | 85 | 1018.4 |
| 20260505174540 | 59 | 278 | 5.0 | 7.0 | 0.00 | 0.07 | 0.07 | 85 | 1018.3 |
| 20260505173534 | 58 | 277 | 5.0 | 7.0 | 0.00 | 0.07 | 0.07 | 87 | 1018.2 |
| 20260505172558 | 58 | 261 | 6.0 | 8.0 | 0.00 | 0.07 | 0.07 | 89 | 1018.3 |
| 20260505171554 | 57 | 263 | 5.0 | 7.0 | 0.00 | 0.07 | 0.07 | 88 | 1018.5 |
| 20260505170519 | 57 | 242 | 5.0 | 6.0 | 0.00 | 0.07 | 0.07 | 88 | 1018.4 |
| 20260505165523 | 58 | 275 | 5.0 | 6.0 | 0.00 | 0.07 | 0.07 | 88 | 1018.2 |
| 20260505164527 | 57 | 261 | 4.0 | 6.0 | 0.00 | 0.07 | 0.07 | 89 | 1018.3 |
| 20260505163532 | 57 | 251 | 5.0 | 7.0 | 0.00 | 0.07 | 0.07 | 89 | 1018.3 |
| 20260505162518 | 57 | 258 | 5.0 | 7.0 | 0.00 | 0.07 | 0.07 | 90 | 1018.2 |
| 20260505161523 | 57 | 268 | 5.0 | 7.0 | 0.00 | 0.07 | 0.07 | 91 | 1018.3 |
| 20260505160607 | 56 | 254 | 4.0 | 6.0 | 0.00 | 0.07 | 0.07 | 91 | 1018.3 |
| 20260505152526 | 55 | 290 | 4.0 | 6.0 | 0.00 | 0.07 | 0.07 | 93 | 1018.0 |
| 20260505151530 | 55 | 271 | 4.0 | 6.0 | 0.00 | 0.07 | 0.07 | 94 | 1017.9 |
| 20260505150516 | 55 | 283 | 5.0 | 6.0 | 0.00 | 0.07 | 0.07 | 94 | 1017.9 |
| 20260505140545 | 53 | 302 | 2.0 | 4.0 | 0.01 | 0.07 | 0.07 | 99 | 1017.5 |
| 20260505124523 | 52 | 225 | 0.0 | 2.0 | 0.00 | 0.06 | 0.06 | 99 | 1017.0 |
| 20260505123522 | 52 | 248 | 2.0 | 4.0 | 0.00 | 0.06 | 0.06 | 99 | 1016.9 |
| 20260505122520 | 52 | 259 | 1.0 | 4.0 | 0.00 | 0.06 | 0.06 | 99 | 1017.2 |
| 20260505121518 | 52 | 244 | 1.0 | 4.0 | 0.00 | 0.06 | 0.06 | 99 | 1017.2 |
| 20260505120516 | 53 | 227 | 1.0 | 4.0 | 0.00 | 0.06 | 0.06 | 99 | 1017.4 |
| 20260505115515 | 53 | 0.0 | 0.0 | 0.00 | 0.06 | 0.06 | 99 | 1017.2 | |
| 20260505114531 | 53 | 0.0 | 0.0 | 0.00 | 0.06 | 0.06 | 99 | 1017.3 |